This is the latest recevied weather packets stored in our database for station/object KB3AWQ. If no packets are shown the sender has not sent any weather packets the latest 10 day(s).
| Time | Temp. | Humidity | Pressure | Rain* | Wind** | Luminosity | Snow |
|---|---|---|---|---|---|---|---|
| 1778002469 | 26.67° C | 44% | 1006.9 hPa | 0 mm | - | 912 W/m² | - |
| 1778002167 | 26.67° C | 42% | 1007.1 hPa | 0 mm | - | 709 W/m² | - |
| 1778001867 | 26.67° C | 43% | 1007.2 hPa | 0 mm | - | 511 W/m² | - |
| 1778001566 | 26.11° C | 43% | 1007.3 hPa | 0 mm | - | 856 W/m² | - |
| 1778001267 | 26.11° C | 44% | 1007.2 hPa | 0 mm | - | 651 W/m² | - |
| 1778000967 | 26.11° C | 44% | 1007.5 hPa | 0 mm | - | 515 W/m² | - |
| 1778000667 | 26.11° C | 45% | 1007.3 hPa | 0 mm | - | 674 W/m² | - |
| 1778000367 | 26.11° C | 46% | 1007.5 hPa | 0 mm | - | 729 W/m² | - |
| 1778000067 | 26.11° C | 45% | 1007.5 hPa | 0 mm | - | 912 W/m² | - |
| 1777999768 | 26.11° C | 47% | 1007.5 hPa | 0 mm | - | 381 W/m² | - |
| 1777999466 | 26.11° C | 47% | 1007.3 hPa | 0 mm | - | 418 W/m² | - |
| 1777999167 | 26.67° C | 45% | 1007.5 hPa | 0 mm | - | 410 W/m² | - |
| 1777998866 | 26.11° C | 47% | 1007.5 hPa | 0 mm | - | 987 W/m² | - |
| 1777998567 | 26.11° C | 47% | 1007.5 hPa | 0 mm | - | 906 W/m² | - |
| 1777998267 | 26.11° C | 46% | 1007.6 hPa | 0 mm | - | 964 W/m² | - |
| 1777997967 | 25.56° C | 48% | 1007.6 hPa | 0 mm | - | 830 W/m² | - |
| 1777997673 | 25.56° C | 50% | 1007.8 hPa | 0 mm | - | 510 W/m² | - |
| 1777997366 | 25.56° C | 49% | 1007.9 hPa | 0 mm | - | 335 W/m² | - |
| 1777997067 | 25.56° C | 48% | 1007.9 hPa | 0 mm | - | 479 W/m² | - |
| 1777996767 | 25° C | 50% | 1008.1 hPa | 0 mm | - | 805 W/m² | - |
| 1777996466 | 25° C | 52% | 1008.1 hPa | 0 mm | - | 467 W/m² | - |
| 1777996167 | 25° C | 51% | 1008.1 hPa | 0 mm | - | 914 W/m² | - |
| 1777995867 | 25° C | 50% | 1008.2 hPa | 0 mm | - | 232 W/m² | - |
| 1777995567 | 25° C | 52% | 1008.2 hPa | 0 mm | - | 299 W/m² | - |
| 1777995269 | 25.56° C | 49% | 1008.2 hPa | 0 mm | - | 352 W/m² | - |
* Rain latest hour (hover to see other rain measurements)
** Current wind speed in m/s (hover to see current wind gust speed)